sensor_id;sensor_type;location;lat;lon;timestamp;P1;durP1;ratioP1;P2;durP2;ratioP2
5999;SDS011;3028;49.468;7.694;2023-05-01T00:00:35;6.72;;;5.60;;
5999;SDS011;3028;49.468;7.694;2023-05-01T00:02:37;4.55;;;4.15;;
5999;SDS011;3028;49.468;7.694;2023-05-01T00:04:39;6.07;;;5.47;;
5999;SDS011;3028;49.468;7.694;2023-05-01T00:06:41;5.65;;;5.15;;
5999;SDS011;3028;49.468;7.694;2023-05-01T00:08:43;4.45;;;4.10;;
5999;SDS011;3028;49.468;7.694;2023-05-01T00:10:44;4.35;;;4.05;;
5999;SDS011;3028;49.468;7.694;2023-05-01T00:12:47;8.45;;;3.88;;
5999;SDS011;3028;49.468;7.694;2023-05-01T00:14:48;3.60;;;3.30;;
5999;SDS011;3028;49.468;7.694;2023-05-01T00:16:50;4.47;;;4.18;;
5999;SDS011;3028;49.468;7.694;2023-05-01T00:18:52;3.67;;;3.42;;
5999;SDS011;3028;49.468;7.694;2023-05-01T00:20:53;4.30;;;4.00;;
5999;SDS011;3028;49.468;7.694;2023-05-01T00:22:55;3.90;;;3.58;;
5999;SDS011;3028;49.468;7.694;2023-05-01T00:24:57;4.75;;;4.45;;
5999;SDS011;3028;49.468;7.694;2023-05-01T00:26:59;7.45;;;5.32;;
5999;SDS011;3028;49.468;7.694;2023-05-01T00:29:00;5.80;;;5.40;;
5999;SDS011;3028;49.468;7.694;2023-05-01T00:31:03;6.57;;;6.00;;
5999;SDS011;3028;49.468;7.694;2023-05-01T00:33:04;5.90;;;5.40;;
5999;SDS011;3028;49.468;7.694;2023-05-01T00:35:06;7.32;;;6.72;;
5999;SDS011;3028;49.468;7.694;2023-05-01T00:37:08;6.50;;;5.90;;
5999;SDS011;3028;49.468;7.694;2023-05-01T00:39:10;6.47;;;5.97;;
5999;SDS011;3028;49.468;7.694;2023-05-01T00:41:12;6.40;;;5.90;;
5999;SDS011;3028;49.468;7.694;2023-05-01T00:43:14;5.63;;;5.22;;
5999;SDS011;3028;49.468;7.694;2023-05-01T00:45:15;5.05;;;4.38;;
5999;SDS011;3028;49.468;7.694;2023-05-01T00:47:17;4.13;;;3.80;;
5999;SDS011;3028;49.468;7.694;2023-05-01T00:49:19;3.63;;;3.35;;
5999;SDS011;3028;49.468;7.694;2023-05-01T00:51:20;7.90;;;4.20;;
5999;SDS011;3028;49.468;7.694;2023-05-01T00:53:22;4.63;;;4.32;;
5999;SDS011;3028;49.468;7.694;2023-05-01T00:55:26;3.60;;;3.30;;
5999;SDS011;3028;49.468;7.694;2023-05-01T00:57:28;3.95;;;3.65;;
5999;SDS011;3028;49.468;7.694;2023-05-01T00:59:30;4.25;;;3.95;;
5999;SDS011;3028;49.468;7.694;2023-05-01T01:01:31;4.10;;;3.80;;
5999;SDS011;3028;49.468;7.694;2023-05-01T01:03:35;4.28;;;3.97;;
5999;SDS011;3028;49.468;7.694;2023-05-01T01:05:40;3.72;;;3.42;;
5999;SDS011;3028;49.468;7.694;2023-05-01T01:07:50;4.43;;;4.03;;
5999;SDS011;3028;49.468;7.694;2023-05-01T01:10:09;8.38;;;3.92;;
5999;SDS011;3028;49.468;7.694;2023-05-01T01:14:38;9.43;;;3.85;;
5999;SDS011;3028;49.468;7.694;2023-05-01T01:17:24;4.60;;;4.20;;
5999;SDS011;3028;49.468;7.694;2023-05-01T01:20:03;4.00;;;3.63;;
5999;SDS011;3028;49.468;7.694;2023-05-01T01:22:27;3.95;;;3.65;;
5999;SDS011;3028;49.468;7.694;2023-05-01T01:31:45;4.32;;;4.03;;
5999;SDS011;3028;49.468;7.694;2023-05-01T01:34:11;4.32;;;4.03;;
5999;SDS011;3028;49.468;7.694;2023-05-01T01:36:16;3.72;;;3.42;;
5999;SDS011;3028;49.468;7.694;2023-05-01T01:38:21;4.35;;;3.60;;
5999;SDS011;3028;49.468;7.694;2023-05-01T01:40:28;4.25;;;3.85;;
5999;SDS011;3028;49.468;7.694;2023-05-01T01:42:40;6.32;;;3.65;;
5999;SDS011;3028;49.468;7.694;2023-05-01T01:44:50;5.80;;;3.20;;
5999;SDS011;3028;49.468;7.694;2023-05-01T01:46:53;4.22;;;3.83;;
5999;SDS011;3028;49.468;7.694;2023-05-01T01:48:54;3.15;;;2.88;;
5999;SDS011;3028;49.468;7.694;2023-05-01T01:50:58;3.92;;;3.50;;
5999;SDS011;3028;49.468;7.694;2023-05-01T01:53:01;4.65;;;3.13;;
5999;SDS011;3028;49.468;7.694;2023-05-01T01:55:05;3.03;;;2.83;;
5999;SDS011;3028;49.468;7.694;2023-05-01T01:57:10;3.60;;;3.25;;
5999;SDS011;3028;49.468;7.694;2023-05-01T01:59:13;3.78;;;3.47;;
5999;SDS011;3028;49.468;7.694;2023-05-01T02:01:15;3.78;;;3.47;;
5999;SDS011;3028;49.468;7.694;2023-05-01T02:03:20;3.33;;;3.13;;
5999;SDS011;3028;49.468;7.694;2023-05-01T02:05:22;4.13;;;3.80;;
5999;SDS011;3028;49.468;7.694;2023-05-01T02:07:26;5.72;;;2.90;;
5999;SDS011;3028;49.468;7.694;2023-05-01T02:09:29;3.47;;;3.22;;
5999;SDS011;3028;49.468;7.694;2023-05-01T02:11:31;3.67;;;3.38;;
5999;SDS011;3028;49.468;7.694;2023-05-01T02:13:33;3.35;;;3.13;;
5999;SDS011;3028;49.468;7.694;2023-05-01T02:15:37;4.30;;;4.00;;
5999;SDS011;3028;49.468;7.694;2023-05-01T02:17:38;3.58;;;3.05;;
5999;SDS011;3028;49.468;7.694;2023-05-01T02:19:41;4.50;;;4.10;;
5999;SDS011;3028;49.468;7.694;2023-05-01T02:21:44;3.00;;;2.80;;
5999;SDS011;3028;49.468;7.694;2023-05-01T02:23:46;3.65;;;3.20;;
5999;SDS011;3028;49.468;7.694;2023-05-01T02:25:48;3.15;;;2.95;;
5999;SDS011;3028;49.468;7.694;2023-05-01T02:27:54;3.17;;;2.92;;
5999;SDS011;3028;49.468;7.694;2023-05-01T02:29:57;3.60;;;3.38;;
5999;SDS011;3028;49.468;7.694;2023-05-01T02:31:59;3.17;;;2.88;;
5999;SDS011;3028;49.468;7.694;2023-05-01T02:34:01;3.45;;;3.13;;
5999;SDS011;3028;49.468;7.694;2023-05-01T02:36:02;3.95;;;3.03;;
5999;SDS011;3028;49.468;7.694;2023-05-01T02:38:05;3.65;;;3.45;;
5999;SDS011;3028;49.468;7.694;2023-05-01T02:40:07;3.83;;;3.53;;
5999;SDS011;3028;49.468;7.694;2023-05-01T02:42:09;3.25;;;3.05;;
5999;SDS011;3028;49.468;7.694;2023-05-01T02:44:12;3.08;;;2.88;;
5999;SDS011;3028;49.468;7.694;2023-05-01T02:46:14;3.65;;;2.85;;
5999;SDS011;3028;49.468;7.694;2023-05-01T02:48:19;3.35;;;3.05;;
5999;SDS011;3028;49.468;7.694;2023-05-01T02:50:23;3.92;;;2.80;;
5999;SDS011;3028;49.468;7.694;2023-05-01T02:52:25;3.33;;;2.63;;
5999;SDS011;3028;49.468;7.694;2023-05-01T02:54:27;3.75;;;3.42;;
5999;SDS011;3028;49.468;7.694;2023-05-01T02:56:29;3.10;;;2.88;;
5999;SDS011;3028;49.468;7.694;2023-05-01T02:58:31;2.17;;;2.05;;
5999;SDS011;3028;49.468;7.694;2023-05-01T03:00:33;3.28;;;2.45;;
5999;SDS011;3028;49.468;7.694;2023-05-01T03:02:35;2.67;;;2.47;;
5999;SDS011;3028;49.468;7.694;2023-05-01T03:04:37;3.13;;;2.92;;
5999;SDS011;3028;49.468;7.694;2023-05-01T03:06:38;2.63;;;2.28;;
5999;SDS011;3028;49.468;7.694;2023-05-01T03:08:40;3.83;;;2.85;;
5999;SDS011;3028;49.468;7.694;2023-05-01T03:10:42;2.97;;;2.78;;
5999;SDS011;3028;49.468;7.694;2023-05-01T03:12:43;2.72;;;2.53;;
5999;SDS011;3028;49.468;7.694;2023-05-01T03:14:45;3.55;;;3.13;;
5999;SDS011;3028;49.468;7.694;2023-05-01T03:16:46;3.38;;;3.15;;
5999;SDS011;3028;49.468;7.694;2023-05-01T03:18:48;3.50;;;3.20;;
5999;SDS011;3028;49.468;7.694;2023-05-01T03:20:50;3.05;;;2.75;;
5999;SDS011;3028;49.468;7.694;2023-05-01T03:22:53;4.10;;;3.78;;
5999;SDS011;3028;49.468;7.694;2023-05-01T03:24:55;3.38;;;3.15;;
5999;SDS011;3028;49.468;7.694;2023-05-01T03:26:57;3.45;;;3.13;;
5999;SDS011;3028;49.468;7.694;2023-05-01T03:28:59;5.07;;;2.67;;
5999;SDS011;3028;49.468;7.694;2023-05-01T03:31:00;3.63;;;3.33;;
5999;SDS011;3028;49.468;7.694;2023-05-01T03:33:02;3.03;;;2.83;;
5999;SDS011;3028;49.468;7.694;2023-05-01T03:35:04;8.10;;;3.22;;
5999;SDS011;3028;49.468;7.694;2023-05-01T03:37:06;3.42;;;3.13;;
5999;SDS011;3028;49.468;7.694;2023-05-01T03:39:07;3.63;;;3.38;;
5999;SDS011;3028;49.468;7.694;2023-05-01T03:41:09;3.65;;;3.35;;
5999;SDS011;3028;49.468;7.694;2023-05-01T03:43:11;3.50;;;3.20;;
5999;SDS011;3028;49.468;7.694;2023-05-01T03:45:12;4.10;;;3.40;;
5999;SDS011;3028;49.468;7.694;2023-05-01T03:47:14;3.30;;;3.10;;
5999;SDS011;3028;49.468;7.694;2023-05-01T03:49:16;2.88;;;2.67;;
5999;SDS011;3028;49.468;7.694;2023-05-01T03:51:17;2.38;;;2.28;;
5999;SDS011;3028;49.468;7.694;2023-05-01T03:53:19;3.40;;;3.10;;
5999;SDS011;3028;49.468;7.694;2023-05-01T03:55:20;2.90;;;2.70;;
5999;SDS011;3028;49.468;7.694;2023-05-01T03:57:22;3.17;;;2.97;;
5999;SDS011;3028;49.468;7.694;2023-05-01T03:59:23;7.55;;;3.70;;
5999;SDS011;3028;49.468;7.694;2023-05-01T04:01:25;3.20;;;2.90;;
5999;SDS011;3028;49.468;7.694;2023-05-01T04:03:27;3.08;;;2.78;;
5999;SDS011;3028;49.468;7.694;2023-05-01T04:05:29;3.22;;;2.92;;
5999;SDS011;3028;49.468;7.694;2023-05-01T04:07:31;3.47;;;3.17;;
5999;SDS011;3028;49.468;7.694;2023-05-01T04:09:32;9.65;;;3.03;;
5999;SDS011;3028;49.468;7.694;2023-05-01T04:11:34;3.08;;;2.88;;
5999;SDS011;3028;49.468;7.694;2023-05-01T04:13:35;5.03;;;2.88;;
5999;SDS011;3028;49.468;7.694;2023-05-01T04:15:37;3.25;;;2.95;;
5999;SDS011;3028;49.468;7.694;2023-05-01T04:17:39;3.97;;;3.67;;
5999;SDS011;3028;49.468;7.694;2023-05-01T04:19:40;3.10;;;2.90;;
5999;SDS011;3028;49.468;7.694;2023-05-01T04:21:42;3.80;;;3.42;;
5999;SDS011;3028;49.468;7.694;2023-05-01T04:23:43;2.65;;;2.45;;
5999;SDS011;3028;49.468;7.694;2023-05-01T04:25:45;3.08;;;2.50;;
5999;SDS011;3028;49.468;7.694;2023-05-01T04:27:47;3.20;;;2.90;;
5999;SDS011;3028;49.468;7.694;2023-05-01T04:29:49;3.70;;;3.40;;
5999;SDS011;3028;49.468;7.694;2023-05-01T04:31:50;3.53;;;3.13;;
5999;SDS011;3028;49.468;7.694;2023-05-01T04:33:52;2.85;;;2.65;;
5999;SDS011;3028;49.468;7.694;2023-05-01T04:35:53;2.80;;;2.60;;
5999;SDS011;3028;49.468;7.694;2023-05-01T04:37:55;2.97;;;2.78;;
5999;SDS011;3028;49.468;7.694;2023-05-01T04:39:56;3.30;;;2.83;;
5999;SDS011;3028;49.468;7.694;2023-05-01T04:41:58;4.70;;;2.78;;
5999;SDS011;3028;49.468;7.694;2023-05-01T04:44:00;3.17;;;2.95;;
5999;SDS011;3028;49.468;7.694;2023-05-01T04:46:04;2.90;;;2.70;;
5999;SDS011;3028;49.468;7.694;2023-05-01T04:48:06;3.60;;;3.10;;
5999;SDS011;3028;49.468;7.694;2023-05-01T04:50:08;3.45;;;3.15;;
5999;SDS011;3028;49.468;7.694;2023-05-01T04:52:09;3.00;;;2.75;;
5999;SDS011;3028;49.468;7.694;2023-05-01T04:54:12;2.95;;;2.75;;
5999;SDS011;3028;49.468;7.694;2023-05-01T04:56:14;2.63;;;2.40;;
5999;SDS011;3028;49.468;7.694;2023-05-01T04:58:15;2.47;;;2.35;;
5999;SDS011;3028;49.468;7.694;2023-05-01T05:00:17;2.67;;;2.47;;
5999;SDS011;3028;49.468;7.694;2023-05-01T05:02:19;3.65;;;3.42;;
5999;SDS011;3028;49.468;7.694;2023-05-01T05:04:21;3.45;;;3.15;;
5999;SDS011;3028;49.468;7.694;2023-05-01T05:06:22;3.08;;;2.78;;
5999;SDS011;3028;49.468;7.694;2023-05-01T05:08:24;3.97;;;3.22;;
5999;SDS011;3028;49.468;7.694;2023-05-01T05:10:26;3.63;;;3.33;;
5999;SDS011;3028;49.468;7.694;2023-05-01T05:12:27;2.70;;;2.50;;
5999;SDS011;3028;49.468;7.694;2023-05-01T05:14:29;2.70;;;2.50;;
5999;SDS011;3028;49.468;7.694;2023-05-01T05:16:31;4.75;;;3.03;;
5999;SDS011;3028;49.468;7.694;2023-05-01T05:18:32;2.95;;;2.75;;
5999;SDS011;3028;49.468;7.694;2023-05-01T05:20:36;2.92;;;2.58;;
5999;SDS011;3028;49.468;7.694;2023-05-01T05:22:39;2.20;;;2.10;;
5999;SDS011;3028;49.468;7.694;2023-05-01T05:24:40;4.07;;;2.83;;
5999;SDS011;3028;49.468;7.694;2023-05-01T05:26:42;3.28;;;3.05;;
5999;SDS011;3028;49.468;7.694;2023-05-01T05:28:45;3.30;;;3.00;;
5999;SDS011;3028;49.468;7.694;2023-05-01T05:30:46;3.13;;;2.92;;
5999;SDS011;3028;49.468;7.694;2023-05-01T05:32:48;7.72;;;3.13;;
5999;SDS011;3028;49.468;7.694;2023-05-01T05:34:49;3.20;;;2.88;;
5999;SDS011;3028;49.468;7.694;2023-05-01T05:36:51;3.20;;;2.92;;
5999;SDS011;3028;49.468;7.694;2023-05-01T05:38:52;3.08;;;2.75;;
5999;SDS011;3028;49.468;7.694;2023-05-01T05:40:53;3.85;;;3.50;;
5999;SDS011;3028;49.468;7.694;2023-05-01T05:42:55;3.20;;;3.00;;
5999;SDS011;3028;49.468;7.694;2023-05-01T05:44:57;3.33;;;2.75;;
5999;SDS011;3028;49.468;7.694;2023-05-01T05:46:58;2.60;;;2.35;;
5999;SDS011;3028;49.468;7.694;2023-05-01T05:49:00;4.20;;;3.75;;
5999;SDS011;3028;49.468;7.694;2023-05-01T05:51:01;3.35;;;2.83;;
5999;SDS011;3028;49.468;7.694;2023-05-01T05:53:03;3.22;;;3.03;;
5999;SDS011;3028;49.468;7.694;2023-05-01T05:55:05;3.65;;;3.35;;
5999;SDS011;3028;49.468;7.694;2023-05-01T05:57:06;3.05;;;2.85;;
5999;SDS011;3028;49.468;7.694;2023-05-01T05:59:08;3.45;;;3.10;;
5999;SDS011;3028;49.468;7.694;2023-05-01T06:01:10;3.70;;;3.40;;
5999;SDS011;3028;49.468;7.694;2023-05-01T06:03:11;3.63;;;3.33;;
5999;SDS011;3028;49.468;7.694;2023-05-01T06:05:13;5.28;;;2.65;;
5999;SDS011;3028;49.468;7.694;2023-05-01T06:07:15;2.75;;;2.58;;
5999;SDS011;3028;49.468;7.694;2023-05-01T06:09:17;3.25;;;2.97;;
5999;SDS011;3028;49.468;7.694;2023-05-01T06:11:19;3.38;;;3.17;;
5999;SDS011;3028;49.468;7.694;2023-05-01T06:13:22;5.35;;;3.50;;
5999;SDS011;3028;49.468;7.694;2023-05-01T06:15:23;3.17;;;2.97;;
5999;SDS011;3028;49.468;7.694;2023-05-01T06:17:25;3.78;;;3.40;;
5999;SDS011;3028;49.468;7.694;2023-05-01T06:19:27;3.47;;;3.20;;
5999;SDS011;3028;49.468;7.694;2023-05-01T06:21:28;5.35;;;2.60;;
5999;SDS011;3028;49.468;7.694;2023-05-01T06:23:32;4.38;;;3.33;;
5999;SDS011;3028;49.468;7.694;2023-05-01T06:25:34;3.05;;;2.85;;
5999;SDS011;3028;49.468;7.694;2023-05-01T06:27:35;3.80;;;3.58;;
5999;SDS011;3028;49.468;7.694;2023-05-01T06:29:37;3.60;;;3.15;;
5999;SDS011;3028;49.468;7.694;2023-05-01T06:31:38;2.90;;;2.65;;
5999;SDS011;3028;49.468;7.694;2023-05-01T06:33:40;2.83;;;2.63;;
5999;SDS011;3028;49.468;7.694;2023-05-01T06:35:41;3.63;;;2.40;;
5999;SDS011;3028;49.468;7.694;2023-05-01T06:37:43;3.60;;;2.78;;
5999;SDS011;3028;49.468;7.694;2023-05-01T06:39:46;2.47;;;2.28;;
5999;SDS011;3028;49.468;7.694;2023-05-01T06:41:47;3.08;;;2.88;;
5999;SDS011;3028;49.468;7.694;2023-05-01T06:43:49;2.42;;;2.22;;
5999;SDS011;3028;49.468;7.694;2023-05-01T06:45:51;1.88;;;1.70;;
5999;SDS011;3028;49.468;7.694;2023-05-01T06:47:52;2.92;;;2.40;;
5999;SDS011;3028;49.468;7.694;2023-05-01T06:49:54;3.03;;;2.08;;
5999;SDS011;3028;49.468;7.694;2023-05-01T06:51:56;5.50;;;2.70;;
5999;SDS011;3028;49.468;7.694;2023-05-01T06:53:57;5.88;;;2.15;;
5999;SDS011;3028;49.468;7.694;2023-05-01T06:55:59;2.92;;;2.10;;
5999;SDS011;3028;49.468;7.694;2023-05-01T06:58:00;2.38;;;2.17;;
5999;SDS011;3028;49.468;7.694;2023-05-01T07:00:12;3.55;;;2.33;;
5999;SDS011;3028;49.468;7.694;2023-05-01T07:02:15;4.93;;;2.20;;
5999;SDS011;3028;49.468;7.694;2023-05-01T07:04:16;3.58;;;2.33;;
5999;SDS011;3028;49.468;7.694;2023-05-01T07:06:18;2.97;;;2.33;;
5999;SDS011;3028;49.468;7.694;2023-05-01T07:08:20;3.72;;;2.42;;
5999;SDS011;3028;49.468;7.694;2023-05-01T07:10:21;2.25;;;2.05;;
5999;SDS011;3028;49.468;7.694;2023-05-01T07:12:23;2.08;;;1.98;;
5999;SDS011;3028;49.468;7.694;2023-05-01T07:14:25;3.65;;;2.47;;
5999;SDS011;3028;49.468;7.694;2023-05-01T07:16:26;2.45;;;2.25;;
5999;SDS011;3028;49.468;7.694;2023-05-01T07:18:28;2.90;;;2.60;;
5999;SDS011;3028;49.468;7.694;2023-05-01T07:20:33;4.50;;;2.40;;
5999;SDS011;3028;49.468;7.694;2023-05-01T07:22:35;2.92;;;2.03;;
5999;SDS011;3028;49.468;7.694;2023-05-01T07:24:36;2.58;;;2.15;;
5999;SDS011;3028;49.468;7.694;2023-05-01T07:26:38;5.78;;;2.45;;
5999;SDS011;3028;49.468;7.694;2023-05-01T07:28:40;3.53;;;2.28;;
5999;SDS011;3028;49.468;7.694;2023-05-01T07:30:42;2.00;;;1.90;;
5999;SDS011;3028;49.468;7.694;2023-05-01T07:32:43;2.25;;;2.00;;
5999;SDS011;3028;49.468;7.694;2023-05-01T07:34:45;3.08;;;2.47;;
5999;SDS011;3028;49.468;7.694;2023-05-01T07:36:46;2.83;;;2.53;;
5999;SDS011;3028;49.468;7.694;2023-05-01T07:38:48;3.65;;;2.45;;
5999;SDS011;3028;49.468;7.694;2023-05-01T07:40:51;2.47;;;2.28;;
5999;SDS011;3028;49.468;7.694;2023-05-01T07:42:53;2.45;;;2.20;;
5999;SDS011;3028;49.468;7.694;2023-05-01T07:44:55;3.17;;;2.13;;
5999;SDS011;3028;49.468;7.694;2023-05-01T07:47:01;2.65;;;2.42;;
5999;SDS011;3028;49.468;7.694;2023-05-01T07:49:04;3.63;;;2.53;;
5999;SDS011;3028;49.468;7.694;2023-05-01T07:51:05;2.00;;;1.80;;
5999;SDS011;3028;49.468;7.694;2023-05-01T07:53:07;1.95;;;1.70;;
5999;SDS011;3028;49.468;7.694;2023-05-01T07:55:09;3.13;;;2.30;;
5999;SDS011;3028;49.468;7.694;2023-05-01T07:57:10;3.13;;;2.22;;
5999;SDS011;3028;49.468;7.694;2023-05-01T07:59:12;3.67;;;2.28;;
5999;SDS011;3028;49.468;7.694;2023-05-01T08:01:13;3.25;;;2.95;;
5999;SDS011;3028;49.468;7.694;2023-05-01T08:03:16;2.83;;;2.22;;
5999;SDS011;3028;49.468;7.694;2023-05-01T08:05:18;2.85;;;2.08;;
5999;SDS011;3028;49.468;7.694;2023-05-01T08:07:20;3.03;;;2.60;;
5999;SDS011;3028;49.468;7.694;2023-05-01T08:09:21;4.22;;;2.95;;
5999;SDS011;3028;49.468;7.694;2023-05-01T08:11:23;2.03;;;1.88;;
5999;SDS011;3028;49.468;7.694;2023-05-01T08:13:26;4.82;;;2.35;;
5999;SDS011;3028;49.468;7.694;2023-05-01T08:15:28;1.88;;;1.77;;
5999;SDS011;3028;49.468;7.694;2023-05-01T08:17:29;2.55;;;1.92;;
5999;SDS011;3028;49.468;7.694;2023-05-01T08:19:31;2.28;;;2.00;;
5999;SDS011;3028;49.468;7.694;2023-05-01T08:21:33;2.42;;;2.05;;
5999;SDS011;3028;49.468;7.694;2023-05-01T08:23:35;1.83;;;1.73;;
5999;SDS011;3028;49.468;7.694;2023-05-01T08:25:37;2.85;;;2.13;;
5999;SDS011;3028;49.468;7.694;2023-05-01T08:27:38;3.38;;;2.22;;
5999;SDS011;3028;49.468;7.694;2023-05-01T08:29:40;2.05;;;1.45;;
5999;SDS011;3028;49.468;7.694;2023-05-01T08:31:42;2.25;;;1.70;;
5999;SDS011;3028;49.468;7.694;2023-05-01T08:33:44;1.88;;;1.73;;
5999;SDS011;3028;49.468;7.694;2023-05-01T08:35:45;2.40;;;1.98;;
5999;SDS011;3028;49.468;7.694;2023-05-01T08:37:48;3.42;;;2.08;;
5999;SDS011;3028;49.468;7.694;2023-05-01T08:39:50;1.88;;;1.67;;
5999;SDS011;3028;49.468;7.694;2023-05-01T08:41:51;2.58;;;2.00;;
5999;SDS011;3028;49.468;7.694;2023-05-01T08:43:55;2.05;;;1.70;;
5999;SDS011;3028;49.468;7.694;2023-05-01T08:45:57;2.92;;;1.45;;
5999;SDS011;3028;49.468;7.694;2023-05-01T08:48:03;2.33;;;1.75;;
5999;SDS011;3028;49.468;7.694;2023-05-01T08:50:09;1.88;;;1.35;;
5999;SDS011;3028;49.468;7.694;2023-05-01T08:52:13;2.47;;;1.63;;
5999;SDS011;3028;49.468;7.694;2023-05-01T08:54:15;2.97;;;1.85;;
5999;SDS011;3028;49.468;7.694;2023-05-01T08:56:18;2.28;;;1.80;;
5999;SDS011;3028;49.468;7.694;2023-05-01T08:58:20;2.13;;;1.80;;
5999;SDS011;3028;49.468;7.694;2023-05-01T09:00:24;1.73;;;1.30;;
5999;SDS011;3028;49.468;7.694;2023-05-01T09:02:26;2.28;;;1.45;;
5999;SDS011;3028;49.468;7.694;2023-05-01T09:04:30;2.08;;;1.88;;
5999;SDS011;3028;49.468;7.694;2023-05-01T09:06:32;1.45;;;1.35;;
5999;SDS011;3028;49.468;7.694;2023-05-01T09:08:34;1.40;;;1.30;;
5999;SDS011;3028;49.468;7.694;2023-05-01T09:10:40;2.25;;;1.75;;
5999;SDS011;3028;49.468;7.694;2023-05-01T09:12:46;2.45;;;1.80;;
5999;SDS011;3028;49.468;7.694;2023-05-01T09:14:52;2.35;;;1.83;;
5999;SDS011;3028;49.468;7.694;2023-05-01T09:16:55;2.15;;;1.50;;
5999;SDS011;3028;49.468;7.694;2023-05-01T09:18:57;2.03;;;1.83;;
5999;SDS011;3028;49.468;7.694;2023-05-01T09:20:59;4.03;;;2.50;;
5999;SDS011;3028;49.468;7.694;2023-05-01T09:23:02;1.67;;;1.25;;
5999;SDS011;3028;49.468;7.694;2023-05-01T09:25:04;1.95;;;1.65;;
5999;SDS011;3028;49.468;7.694;2023-05-01T09:27:06;1.42;;;1.33;;
5999;SDS011;3028;49.468;7.694;2023-05-01T09:29:07;3.60;;;1.60;;
5999;SDS011;3028;49.468;7.694;2023-05-01T09:31:20;2.60;;;1.73;;
5999;SDS011;3028;49.468;7.694;2023-05-01T09:33:23;1.88;;;1.65;;
5999;SDS011;3028;49.468;7.694;2023-05-01T09:35:25;3.05;;;1.67;;
5999;SDS011;3028;49.468;7.694;2023-05-01T09:37:28;2.38;;;2.15;;
5999;SDS011;3028;49.468;7.694;2023-05-01T09:39:29;1.50;;;1.40;;
5999;SDS011;3028;49.468;7.694;2023-05-01T09:41:31;1.70;;;1.60;;
5999;SDS011;3028;49.468;7.694;2023-05-01T09:43:33;1.67;;;1.33;;
5999;SDS011;3028;49.468;7.694;2023-05-01T09:45:35;1.83;;;1.52;;
5999;SDS011;3028;49.468;7.694;2023-05-01T09:47:37;1.85;;;1.60;;
5999;SDS011;3028;49.468;7.694;2023-05-01T09:49:43;3.45;;;1.85;;
5999;SDS011;3028;49.468;7.694;2023-05-01T09:51:45;2.15;;;1.30;;
5999;SDS011;3028;49.468;7.694;2023-05-01T09:53:48;1.55;;;1.40;;
5999;SDS011;3028;49.468;7.694;2023-05-01T09:55:59;1.60;;;1.50;;
5999;SDS011;3028;49.468;7.694;2023-05-01T09:58:02;4.10;;;1.63;;
5999;SDS011;3028;49.468;7.694;2023-05-01T10:00:03;2.53;;;1.65;;
5999;SDS011;3028;49.468;7.694;2023-05-01T10:02:26;1.63;;;1.52;;
5999;SDS011;3028;49.468;7.694;2023-05-01T10:04:30;1.80;;;1.27;;
5999;SDS011;3028;49.468;7.694;2023-05-01T10:06:33;1.95;;;1.40;;
5999;SDS011;3028;49.468;7.694;2023-05-01T10:08:45;1.92;;;1.50;;
5999;SDS011;3028;49.468;7.694;2023-05-01T10:11:06;3.00;;;1.70;;
5999;SDS011;3028;49.468;7.694;2023-05-01T10:13:17;1.65;;;1.55;;
5999;SDS011;3028;49.468;7.694;2023-05-01T10:15:19;2.40;;;1.25;;
5999;SDS011;3028;49.468;7.694;2023-05-01T10:17:26;2.38;;;1.40;;
5999;SDS011;3028;49.468;7.694;2023-05-01T10:19:28;1.60;;;1.45;;
5999;SDS011;3028;49.468;7.694;2023-05-01T10:21:31;1.83;;;1.60;;
5999;SDS011;3028;49.468;7.694;2023-05-01T10:23:34;2.08;;;1.58;;
5999;SDS011;3028;49.468;7.694;2023-05-01T10:25:35;2.85;;;1.65;;
5999;SDS011;3028;49.468;7.694;2023-05-01T10:27:37;2.15;;;1.75;;
5999;SDS011;3028;49.468;7.694;2023-05-01T10:29:40;2.47;;;1.58;;
5999;SDS011;3028;49.468;7.694;2023-05-01T10:31:43;2.50;;;1.73;;
5999;SDS011;3028;49.468;7.694;2023-05-01T10:33:45;1.70;;;1.60;;
5999;SDS011;3028;49.468;7.694;2023-05-01T10:35:47;1.92;;;1.70;;
5999;SDS011;3028;49.468;7.694;2023-05-01T10:37:57;1.90;;;1.73;;
5999;SDS011;3028;49.468;7.694;2023-05-01T10:40:41;1.80;;;1.67;;
5999;SDS011;3028;49.468;7.694;2023-05-01T10:43:29;2.35;;;1.80;;
5999;SDS011;3028;49.468;7.694;2023-05-01T10:45:28;2.42;;;1.77;;
5999;SDS011;3028;49.468;7.694;2023-05-01T10:50:01;1.80;;;1.65;;
5999;SDS011;3028;49.468;7.694;2023-05-01T10:52:08;2.75;;;2.03;;
5999;SDS011;3028;49.468;7.694;2023-05-01T11:00:39;2.38;;;2.17;;
5999;SDS011;3028;49.468;7.694;2023-05-01T11:02:40;2.35;;;2.03;;
5999;SDS011;3028;49.468;7.694;2023-05-01T11:04:46;3.25;;;1.60;;
5999;SDS011;3028;49.468;7.694;2023-05-01T11:11:57;2.15;;;1.60;;
5999;SDS011;3028;49.468;7.694;2023-05-01T11:13:59;8.23;;;2.00;;
5999;SDS011;3028;49.468;7.694;2023-05-01T11:18:45;4.38;;;1.92;;
5999;SDS011;3028;49.468;7.694;2023-05-01T11:20:47;3.30;;;2.05;;
5999;SDS011;3028;49.468;7.694;2023-05-01T11:22:49;2.78;;;2.10;;
5999;SDS011;3028;49.468;7.694;2023-05-01T11:24:52;4.22;;;2.13;;
5999;SDS011;3028;49.468;7.694;2023-05-01T11:26:53;1.67;;;1.52;;
5999;SDS011;3028;49.468;7.694;2023-05-01T11:28:59;2.28;;;2.00;;
5999;SDS011;3028;49.468;7.694;2023-05-01T11:31:01;3.05;;;1.55;;
5999;SDS011;3028;49.468;7.694;2023-05-01T11:33:03;2.00;;;1.80;;
5999;SDS011;3028;49.468;7.694;2023-05-01T11:35:06;2.35;;;1.58;;
5999;SDS011;3028;49.468;7.694;2023-05-01T11:37:09;2.22;;;1.50;;
5999;SDS011;3028;49.468;7.694;2023-05-01T11:39:13;1.60;;;1.50;;
5999;SDS011;3028;49.468;7.694;2023-05-01T11:41:18;1.95;;;1.63;;
5999;SDS011;3028;49.468;7.694;2023-05-01T11:43:21;1.80;;;1.70;;
5999;SDS011;3028;49.468;7.694;2023-05-01T11:45:23;1.60;;;1.50;;
5999;SDS011;3028;49.468;7.694;2023-05-01T11:47:25;1.70;;;1.48;;
5999;SDS011;3028;49.468;7.694;2023-05-01T11:49:32;2.13;;;1.92;;
5999;SDS011;3028;49.468;7.694;2023-05-01T11:51:34;1.42;;;1.33;;
5999;SDS011;3028;49.468;7.694;2023-05-01T11:53:36;1.95;;;1.85;;
5999;SDS011;3028;49.468;7.694;2023-05-01T11:55:38;5.93;;;1.90;;
5999;SDS011;3028;49.468;7.694;2023-05-01T11:57:52;2.22;;;1.90;;
5999;SDS011;3028;49.468;7.694;2023-05-01T11:59:54;1.83;;;1.73;;
5999;SDS011;3028;49.468;7.694;2023-05-01T12:01:56;2.13;;;1.58;;
5999;SDS011;3028;49.468;7.694;2023-05-01T12:03:58;2.92;;;1.85;;
5999;SDS011;3028;49.468;7.694;2023-05-01T12:06:00;3.17;;;1.63;;
5999;SDS011;3028;49.468;7.694;2023-05-01T12:08:12;1.55;;;1.30;;
5999;SDS011;3028;49.468;7.694;2023-05-01T12:10:21;2.30;;;1.73;;
5999;SDS011;3028;49.468;7.694;2023-05-01T12:12:23;1.73;;;1.60;;
5999;SDS011;3028;49.468;7.694;2023-05-01T12:14:25;1.77;;;1.67;;
5999;SDS011;3028;49.468;7.694;2023-05-01T12:16:27;2.08;;;1.70;;
5999;SDS011;3028;49.468;7.694;2023-05-01T12:18:29;2.42;;;1.73;;
5999;SDS011;3028;49.468;7.694;2023-05-01T12:20:34;1.75;;;1.65;;
5999;SDS011;3028;49.468;7.694;2023-05-01T12:22:48;2.05;;;1.85;;
5999;SDS011;3028;49.468;7.694;2023-05-01T12:24:50;1.90;;;1.70;;
5999;SDS011;3028;49.468;7.694;2023-05-01T12:26:58;1.73;;;1.63;;
5999;SDS011;3028;49.468;7.694;2023-05-01T12:29:02;2.03;;;1.75;;
5999;SDS011;3028;49.468;7.694;2023-05-01T12:31:04;1.80;;;1.70;;
5999;SDS011;3028;49.468;7.694;2023-05-01T12:33:10;2.15;;;1.45;;
5999;SDS011;3028;49.468;7.694;2023-05-01T12:35:15;5.95;;;2.00;;
5999;SDS011;3028;49.468;7.694;2023-05-01T12:37:17;1.58;;;1.30;;
5999;SDS011;3028;49.468;7.694;2023-05-01T12:39:19;2.60;;;1.50;;
5999;SDS011;3028;49.468;7.694;2023-05-01T12:41:21;1.42;;;1.13;;
5999;SDS011;3028;49.468;7.694;2023-05-01T12:43:42;2.60;;;1.35;;
5999;SDS011;3028;49.468;7.694;2023-05-01T12:45:44;1.40;;;1.20;;
5999;SDS011;3028;49.468;7.694;2023-05-01T12:47:49;1.30;;;1.20;;
5999;SDS011;3028;49.468;7.694;2023-05-01T12:49:59;1.20;;;1.10;;
5999;SDS011;3028;49.468;7.694;2023-05-01T12:52:03;1.40;;;1.30;;
5999;SDS011;3028;49.468;7.694;2023-05-01T12:54:06;2.35;;;1.20;;
5999;SDS011;3028;49.468;7.694;2023-05-01T12:56:19;1.67;;;1.30;;
5999;SDS011;3028;49.468;7.694;2023-05-01T12:58:33;2.00;;;1.38;;
5999;SDS011;3028;49.468;7.694;2023-05-01T13:00:46;1.15;;;1.05;;
5999;SDS011;3028;49.468;7.694;2023-05-01T13:02:52;2.72;;;1.25;;
5999;SDS011;3028;49.468;7.694;2023-05-01T13:05:03;1.38;;;1.27;;
5999;SDS011;3028;49.468;7.694;2023-05-01T13:07:16;1.52;;;1.35;;
5999;SDS011;3028;49.468;7.694;2023-05-01T13:09:18;1.75;;;1.20;;
5999;SDS011;3028;49.468;7.694;2023-05-01T13:11:20;1.45;;;1.30;;
5999;SDS011;3028;49.468;7.694;2023-05-01T13:13:23;1.65;;;1.08;;